createdAt,value
2017-11-18T00:01:59.712Z,7.17
2017-11-18T00:04:27.194Z,7.53
2017-11-18T00:06:54.656Z,7.57
2017-11-18T00:09:22.902Z,7.47
2017-11-18T00:11:50.389Z,8.33
2017-11-18T00:14:18.648Z,7.20
2017-11-18T00:16:46.125Z,7.50
2017-11-18T00:19:14.399Z,6.83
2017-11-18T00:21:42.642Z,6.87
2017-11-18T00:24:10.100Z,8.00
2017-11-18T00:26:37.625Z,8.17
2017-11-18T00:29:05.104Z,6.87
2017-11-18T00:31:32.576Z,8.40
2017-11-18T00:34:00.032Z,8.50
2017-11-18T00:36:27.522Z,7.70
2017-11-18T00:38:55.762Z,7.67
2017-11-18T00:41:23.447Z,7.40
2017-11-18T00:43:50.948Z,8.17
2017-11-18T00:46:18.467Z,7.23
2017-11-18T00:48:45.933Z,7.97
2017-11-18T00:51:14.187Z,6.37
2017-11-18T00:53:41.678Z,7.70
2017-11-18T00:56:09.162Z,6.93
2017-11-18T00:58:36.641Z,7.20
2017-11-18T01:01:04.114Z,7.47
2017-11-18T01:03:31.606Z,6.80
2017-11-18T01:05:59.856Z,6.90
2017-11-18T01:08:27.351Z,8.20
2017-11-18T01:10:55.596Z,7.47
2017-11-18T01:13:23.055Z,6.40
2017-11-18T01:15:50.527Z,7.00
2017-11-18T01:18:18.006Z,7.40
2017-11-18T01:20:45.493Z,7.03
2017-11-18T01:23:12.968Z,6.80
2017-11-18T01:25:40.448Z,7.37
2017-11-18T01:28:07.908Z,7.70
2017-11-18T01:30:35.402Z,8.97
2017-11-18T01:33:02.873Z,8.53
2017-11-18T01:35:30.328Z,6.90
2017-11-18T01:37:57.820Z,7.30
2017-11-18T01:40:25.275Z,7.70
2017-11-18T01:42:52.752Z,8.90
2017-11-18T01:45:20.224Z,8.93
2017-11-18T01:47:47.694Z,8.13
2017-11-18T01:50:15.969Z,8.53
2017-11-18T01:52:44.252Z,7.77
2017-11-18T01:55:12.664Z,9.10
2017-11-18T01:57:40.148Z,8.93
2017-11-18T02:00:07.721Z,7.80
2017-11-18T02:02:43.089Z,7.90
2017-11-18T02:05:10.592Z,7.97
2017-11-18T02:07:38.072Z,7.20
2017-11-18T02:10:05.556Z,6.43
2017-11-18T02:12:33.797Z,7.00
2017-11-18T02:15:01.294Z,7.00
2017-11-18T02:17:29.563Z,6.80
2017-11-18T02:19:57.050Z,7.43
2017-11-18T02:22:24.532Z,7.10
2017-11-18T02:24:52.027Z,7.27
2017-11-18T02:27:19.508Z,7.77
2017-11-18T02:29:47.747Z,7.17
2017-11-18T02:32:15.278Z,7.57
2017-11-18T02:34:42.751Z,7.87
2017-11-18T02:37:10.209Z,8.50
2017-11-18T02:39:37.698Z,7.50
2017-11-18T02:42:05.177Z,9.07
2017-11-18T02:44:33.424Z,8.00
2017-11-18T02:47:00.892Z,8.00
2017-11-18T02:49:28.396Z,8.07
2017-11-18T02:51:55.885Z,8.00
2017-11-18T02:54:23.427Z,7.53
2017-11-18T02:56:50.920Z,8.93
2017-11-18T02:59:18.390Z,8.50
2017-11-18T03:01:45.856Z,9.23
2017-11-18T03:04:13.538Z,8.30
2017-11-18T03:06:41.772Z,8.77
2017-11-18T03:09:09.289Z,8.87
2017-11-18T03:11:36.757Z,10.47
2017-11-18T03:14:04.252Z,10.60
2017-11-18T03:16:31.720Z,9.80
2017-11-18T03:18:59.199Z,10.93
2017-11-18T03:21:26.672Z,11.83
2017-11-18T03:23:54.909Z,11.20
2017-11-18T03:26:22.410Z,10.90
2017-11-18T03:28:50.677Z,13.40
2017-11-18T03:31:18.922Z,14.87
2017-11-18T03:33:46.389Z,13.40
2017-11-18T03:36:13.876Z,13.80
2017-11-18T03:38:42.140Z,15.00
2017-11-18T03:41:10.410Z,14.40
2017-11-18T03:43:37.885Z,13.03
2017-11-18T03:46:06.133Z,15.83
2017-11-18T03:48:33.616Z,14.83
2017-11-18T03:51:01.923Z,15.27
2017-11-18T03:53:29.401Z,15.13
2017-11-18T03:55:56.869Z,15.37
2017-11-18T03:58:24.336Z,18.23
2017-11-18T04:00:56.355Z,16.00
2017-11-18T04:03:23.849Z,16.03
2017-11-18T04:05:51.308Z,16.00
2017-11-18T04:08:18.786Z,18.83
2017-11-18T04:10:46.271Z,19.57
2017-11-18T04:13:14.517Z,17.73
2017-11-18T04:15:42.791Z,17.73
2017-11-18T04:18:10.364Z,18.40
2017-11-18T04:20:37.874Z,17.63
2017-11-18T04:23:05.365Z,17.53
2017-11-18T04:25:32.894Z,18.37
2017-11-18T04:28:00.364Z,19.00
2017-11-18T04:30:27.967Z,20.50
2017-11-18T04:32:55.432Z,20.53
2017-11-18T04:35:23.705Z,22.60
2017-11-18T04:37:52.003Z,20.30
2017-11-18T04:40:20.359Z,20.70
2017-11-18T04:42:47.837Z,21.53
2017-11-18T04:45:15.320Z,19.90
2017-11-18T04:47:42.803Z,18.83
2017-11-18T04:50:10.288Z,19.70
2017-11-18T04:52:37.814Z,19.10
2017-11-18T04:55:05.282Z,18.90
2017-11-18T04:57:32.765Z,20.73
2017-11-18T05:00:00.228Z,20.70
2017-11-18T05:02:28.501Z,18.70
2017-11-18T05:04:56.017Z,21.30
2017-11-18T05:07:23.495Z,20.40
2017-11-18T05:09:50.987Z,19.53
2017-11-18T05:12:19.288Z,17.63
2017-11-18T05:14:46.772Z,18.63
2017-11-18T05:17:14.228Z,17.50
2017-11-18T05:19:41.723Z,18.27
2017-11-18T05:22:09.184Z,18.33
2017-11-18T05:24:37.461Z,19.40
2017-11-18T05:27:04.923Z,17.97
2017-11-18T05:29:32.440Z,20.40
2017-11-18T05:31:59.923Z,17.97
2017-11-18T05:34:27.407Z,18.07
2017-11-18T05:36:55.665Z,17.77
2017-11-18T05:39:23.132Z,16.57
2017-11-18T05:41:50.640Z,18.87
2017-11-18T05:44:18.148Z,17.23
2017-11-18T05:46:45.628Z,17.40
2017-11-18T05:49:13.897Z,15.93
2017-11-18T05:51:42.145Z,17.20
2017-11-18T05:54:09.613Z,18.97
2017-11-18T05:56:37.136Z,15.57
2017-11-18T05:59:04.625Z,18.87
2017-11-18T06:01:32.083Z,14.93
2017-11-18T06:04:01.075Z,17.80
2017-11-18T06:06:28.550Z,16.10
2017-11-18T06:08:56.067Z,15.73
2017-11-18T06:11:27.051Z,15.17
2017-11-18T06:13:54.514Z,16.60
2017-11-18T06:16:22.760Z,14.90
2017-11-18T06:18:50.240Z,16.73
2017-11-18T06:21:17.745Z,15.07
2017-11-18T06:23:45.223Z,13.63
2017-11-18T06:26:12.684Z,16.33
2017-11-18T06:28:40.149Z,13.97
2017-11-18T06:31:07.621Z,13.40
2017-11-18T06:33:35.076Z,12.50
2017-11-18T06:36:02.541Z,13.37
2017-11-18T06:38:30.832Z,11.53
2017-11-18T06:40:58.320Z,13.00
2017-11-18T06:43:25.801Z,11.87
2017-11-18T06:45:53.280Z,12.50
2017-11-18T06:48:20.757Z,11.00
2017-11-18T06:50:48.238Z,11.80
2017-11-18T06:53:16.477Z,14.10
2017-11-18T06:55:43.952Z,12.57
2017-11-18T06:58:11.435Z,11.50
2017-11-18T07:00:39.666Z,11.90
2017-11-18T07:03:07.169Z,11.70
2017-11-18T07:05:35.433Z,12.27
2017-11-18T07:08:02.943Z,11.90
2017-11-18T07:10:30.399Z,12.10
2017-11-18T07:12:57.911Z,11.50
2017-11-18T07:15:26.603Z,12.33
2017-11-18T07:17:54.828Z,12.30
2017-11-18T07:20:22.321Z,12.20
2017-11-18T07:22:50.598Z,12.00
2017-11-18T07:25:18.131Z,12.33
2017-11-18T07:27:45.617Z,11.60
2017-11-18T07:30:13.132Z,12.97
2017-11-18T07:32:40.998Z,13.97
2017-11-18T07:35:08.514Z,12.47
2017-11-18T07:37:36.753Z,12.60
2017-11-18T07:40:04.233Z,11.67
2017-11-18T07:42:31.726Z,11.90
2017-11-18T07:44:59.230Z,12.80
2017-11-18T07:47:26.691Z,13.97
2017-11-18T07:49:54.157Z,12.53
2017-11-18T07:52:21.648Z,13.70
2017-11-18T07:54:49.191Z,11.90
2017-11-18T07:57:17.450Z,11.90
2017-11-18T07:59:44.929Z,14.63
2017-11-18T08:02:12.423Z,13.97
2017-11-18T08:04:39.882Z,12.13
2017-11-18T08:07:07.400Z,12.63
2017-11-18T08:09:34.876Z,12.87
2017-11-18T08:12:03.122Z,12.57
2017-11-18T08:14:30.615Z,13.20
2017-11-18T08:16:58.110Z,12.60
2017-11-18T08:19:25.571Z,12.50
2017-11-18T08:21:53.040Z,12.27
2017-11-18T08:24:20.573Z,12.23
2017-11-18T08:26:48.058Z,12.50
2017-11-18T08:29:15.573Z,11.23
2017-11-18T08:31:43.077Z,12.73
2017-11-18T08:34:10.563Z,11.90
2017-11-18T08:36:41.745Z,11.20
2017-11-18T08:39:09.230Z,12.87
2017-11-18T08:41:36.722Z,13.93
2017-11-18T08:44:04.491Z,13.33
2017-11-18T08:46:31.962Z,13.03
2017-11-18T08:49:00.249Z,12.77
2017-11-18T08:51:27.911Z,13.23
2017-11-18T08:53:55.502Z,13.77
2017-11-18T08:56:23.020Z,13.63
2017-11-18T08:58:51.281Z,13.37
2017-11-18T09:01:18.815Z,12.90
2017-11-18T09:03:47.232Z,13.20
2017-11-18T09:06:15.557Z,13.70
2017-11-18T09:08:43.110Z,13.07
2017-11-18T09:11:10.597Z,14.30
2017-11-18T09:13:38.120Z,12.90
2017-11-18T09:16:05.790Z,12.73
2017-11-18T09:18:33.296Z,13.20
2017-11-18T09:21:01.841Z,14.57
2017-11-18T09:23:29.403Z,13.87
2017-11-18T09:25:56.957Z,11.73
2017-11-18T09:28:24.446Z,14.93
2017-11-18T09:30:52.519Z,13.87
2017-11-18T09:33:19.982Z,12.87
2017-11-18T09:35:49.160Z,14.50
2017-11-18T09:38:17.913Z,12.13
2017-11-18T09:40:46.523Z,13.83
2017-11-18T09:43:14.025Z,14.73
2017-11-18T09:45:41.511Z,14.20
2017-11-18T09:48:11.089Z,14.00
2017-11-18T09:50:40.019Z,13.67
2017-11-18T09:53:09.347Z,13.93
2017-11-18T09:55:37.236Z,15.10
2017-11-18T09:58:04.718Z,14.53
2017-11-18T10:00:32.218Z,13.10
2017-11-18T10:03:02.097Z,12.50
2017-11-18T10:05:30.536Z,14.03
2017-11-18T10:07:58.073Z,13.87
2017-11-18T10:10:25.960Z,12.57
2017-11-18T10:12:54.777Z,13.37
2017-11-18T10:15:22.439Z,12.20
2017-11-18T10:17:51.885Z,12.57
2017-11-18T10:20:19.466Z,12.07
2017-11-18T10:22:47.229Z,12.53
2017-11-18T10:25:14.739Z,10.80
2017-11-18T10:27:44.083Z,11.17
2017-11-18T10:30:15.040Z,11.47
2017-11-18T10:32:42.850Z,13.10
2017-11-18T10:35:11.191Z,12.20
2017-11-18T10:37:38.697Z,11.77
2017-11-18T10:40:07.033Z,11.37
2017-11-18T10:42:34.947Z,12.53
2017-11-18T10:45:02.549Z,12.10
2017-11-18T10:47:30.061Z,12.70
2017-11-18T10:49:58.363Z,11.27
2017-11-18T10:52:26.062Z,11.97
2017-11-18T10:54:53.528Z,11.63
2017-11-18T10:57:21.048Z,10.93
2017-11-18T10:59:49.453Z,13.30
2017-11-18T11:02:17.029Z,10.73
2017-11-18T11:04:44.508Z,11.13
2017-11-18T11:07:12.005Z,10.47
2017-11-18T11:09:39.544Z,10.70
2017-11-18T11:12:07.814Z,12.20
2017-11-18T11:14:36.073Z,10.63
2017-11-18T11:17:03.674Z,10.57
2017-11-18T11:19:31.197Z,9.60
2017-11-18T11:21:58.664Z,10.77
2017-11-18T11:24:26.186Z,9.23
2017-11-18T11:26:53.663Z,10.73
2017-11-18T11:29:21.158Z,9.70
2017-11-18T11:31:49.397Z,10.57
2017-11-18T11:34:16.931Z,10.17
2017-11-18T11:36:44.430Z,13.13
2017-11-18T11:39:11.917Z,10.20
2017-11-18T11:41:39.392Z,11.70
2017-11-18T11:44:06.885Z,12.17
2017-11-18T11:46:34.364Z,8.97
2017-11-18T11:49:01.879Z,9.80
2017-11-18T11:51:29.360Z,9.10
2017-11-18T11:53:56.852Z,9.93
2017-11-18T11:56:25.141Z,11.47
2017-11-18T11:58:52.750Z,10.73
2017-11-18T12:01:20.216Z,9.77
2017-11-18T12:03:47.697Z,9.53
2017-11-18T12:06:15.240Z,10.23
2017-11-18T12:08:42.840Z,10.23
2017-11-18T12:11:10.345Z,7.80
2017-11-18T12:13:37.828Z,9.13
2017-11-18T12:16:06.077Z,9.30
2017-11-18T12:18:33.555Z,9.60
2017-11-18T12:21:01.109Z,7.93
2017-11-18T12:23:28.574Z,7.43
2017-11-18T12:25:56.046Z,8.33
2017-11-18T12:28:24.285Z,7.50
2017-11-18T12:30:51.752Z,8.17
2017-11-18T12:33:19.204Z,7.40
2017-11-18T12:35:46.716Z,8.30
2017-11-18T12:38:14.945Z,7.53
2017-11-18T12:40:42.423Z,7.80
2017-11-18T12:43:09.918Z,8.40
2017-11-18T12:45:37.376Z,8.27
2017-11-18T12:48:04.859Z,8.10
2017-11-18T12:50:32.333Z,8.90
2017-11-18T12:52:59.831Z,9.23
2017-11-18T12:55:28.800Z,8.10
2017-11-18T12:57:56.289Z,9.10
2017-11-18T13:00:24.531Z,9.70
2017-11-18T13:02:52.037Z,9.20
2017-11-18T13:05:20.282Z,9.67
2017-11-18T13:07:48.011Z,8.47
2017-11-18T13:10:15.482Z,11.10
2017-11-18T13:12:42.947Z,9.87
2017-11-18T13:15:11.005Z,9.07
2017-11-18T13:17:39.048Z,9.13
2017-11-18T13:20:06.567Z,9.60
2017-11-18T13:22:34.298Z,9.27
2017-11-18T13:25:01.800Z,10.10
2017-11-18T13:27:30.035Z,9.10
2017-11-18T13:29:57.555Z,9.80
2017-11-18T13:32:25.031Z,11.13
2017-11-18T13:34:52.593Z,13.87
2017-11-18T13:37:20.072Z,9.77
2017-11-18T13:39:47.554Z,10.90
2017-11-18T13:42:15.021Z,8.60
2017-11-18T13:44:43.285Z,9.40
2017-11-18T13:47:10.761Z,8.73
2017-11-18T13:49:38.278Z,9.47
2017-11-18T13:52:05.775Z,9.03
2017-11-18T13:54:34.004Z,7.63
2017-11-18T13:57:01.479Z,7.60
2017-11-18T13:59:30.530Z,10.17
2017-11-18T14:01:58.013Z,9.50
2017-11-18T14:04:25.585Z,9.80
2017-11-18T14:06:54.176Z,9.73
2017-11-18T14:09:21.657Z,10.10
2017-11-18T14:11:49.823Z,11.37
2017-11-18T14:14:17.380Z,10.07
2017-11-18T14:16:44.877Z,10.20
2017-11-18T14:19:13.132Z,8.13
2017-11-18T14:21:40.602Z,9.40
2017-11-18T14:24:09.710Z,9.10
2017-11-18T14:26:37.953Z,10.03
2017-11-18T14:29:05.456Z,9.13
2017-11-18T14:31:32.927Z,10.40
2017-11-18T14:34:00.405Z,10.07
2017-11-18T14:36:27.888Z,9.50
2017-11-18T14:38:55.360Z,8.63
2017-11-18T14:41:22.839Z,8.97
2017-11-18T14:43:51.215Z,9.77
2017-11-18T14:46:19.581Z,11.77
2017-11-18T14:48:47.854Z,10.83
2017-11-18T14:51:15.470Z,9.53
2017-11-18T14:53:43.003Z,10.30
2017-11-18T14:56:11.074Z,15.77
2017-11-18T14:58:38.561Z,11.43
2017-11-18T15:01:06.061Z,11.43
2017-11-18T15:03:33.549Z,11.00
2017-11-18T15:06:01.775Z,10.10
2017-11-18T15:08:29.539Z,10.03
2017-11-18T15:10:57.124Z,12.40
2017-11-18T15:13:24.620Z,9.53
2017-11-18T15:15:57.943Z,12.60
2017-11-18T15:18:31.124Z,11.97
2017-11-18T15:21:04.239Z,10.27
2017-11-18T15:23:37.454Z,11.37
2017-11-18T15:29:21.462Z,10.20
2017-11-18T15:31:54.636Z,11.40
2017-11-18T15:34:28.809Z,11.57
2017-11-18T15:36:59.927Z,10.83
2017-11-18T15:39:27.424Z,11.13
2017-11-18T15:41:54.926Z,10.80
2017-11-18T15:44:22.408Z,7.90
2017-11-18T15:50:10.256Z,11.03
2017-11-18T15:52:38.290Z,8.80
2017-11-18T15:55:13.192Z,9.23
2017-11-18T15:57:40.686Z,8.03
2017-11-18T16:00:12.020Z,8.77
2017-11-18T16:02:40.752Z,9.50
2017-11-18T16:05:18.143Z,9.10
2017-11-18T16:07:45.835Z,9.53
2017-11-18T16:10:13.514Z,9.20
2017-11-18T16:12:41.938Z,8.90
2017-11-18T16:15:09.464Z,8.63
2017-11-18T16:17:37.793Z,7.40
2017-11-18T16:20:05.260Z,8.17
2017-11-18T16:22:32.748Z,6.63
2017-11-18T16:25:01.126Z,7.83
2017-11-18T16:27:28.607Z,8.10
2017-11-18T16:29:56.872Z,7.83
2017-11-18T16:32:25.169Z,8.13
2017-11-18T16:34:52.667Z,6.70
2017-11-18T16:37:20.197Z,7.73
2017-11-18T16:39:47.662Z,9.30
2017-11-18T16:42:15.151Z,7.57
2017-11-18T16:44:42.615Z,8.10
2017-11-18T16:47:10.129Z,7.43
2017-11-18T16:49:37.632Z,8.83
2017-11-18T16:52:05.119Z,7.10
2017-11-18T16:54:33.413Z,10.40
2017-11-18T16:57:01.765Z,8.23
2017-11-18T16:59:29.251Z,8.20
2017-11-18T17:01:57.477Z,8.00
2017-11-18T17:04:24.989Z,7.20
2017-11-18T17:06:52.516Z,7.80
2017-11-18T17:09:20.239Z,8.30
2017-11-18T17:11:47.717Z,6.70
2017-11-18T17:14:15.193Z,8.10
2017-11-18T17:16:42.711Z,7.67
2017-11-18T17:19:10.248Z,7.40
2017-11-18T17:21:37.773Z,7.97
2017-11-18T17:24:06.036Z,7.57
2017-11-18T17:26:33.540Z,7.30
2017-11-18T17:29:01.042Z,7.40
2017-11-18T17:31:28.555Z,7.17
2017-11-18T17:33:56.843Z,8.53
2017-11-18T17:36:24.357Z,8.43
2017-11-18T17:38:51.887Z,8.80
2017-11-18T17:41:19.886Z,7.97
2017-11-18T17:43:47.477Z,7.77
2017-11-18T17:46:15.712Z,7.37
2017-11-18T17:48:43.201Z,8.30
2017-11-18T17:51:11.481Z,7.80
2017-11-18T17:53:42.006Z,7.83
2017-11-18T17:56:09.536Z,9.73
2017-11-18T17:58:38.636Z,7.93
2017-11-18T18:01:06.955Z,8.77
2017-11-18T18:03:34.450Z,7.90
2017-11-18T18:06:01.952Z,8.63
2017-11-18T18:08:29.478Z,8.70
2017-11-18T18:10:57.192Z,8.60
2017-11-18T18:13:25.787Z,9.50
2017-11-18T18:15:54.049Z,8.00
2017-11-18T18:18:22.308Z,9.50
2017-11-18T18:20:49.864Z,9.07
2017-11-18T18:23:17.364Z,10.33
2017-11-18T18:25:44.884Z,10.70
2017-11-18T18:28:12.428Z,10.83
2017-11-18T18:30:40.089Z,11.30
2017-11-18T18:33:07.628Z,10.67
2017-11-18T18:35:35.158Z,12.00
2017-11-18T18:38:03.393Z,9.80
2017-11-18T18:40:30.897Z,10.10
2017-11-18T18:42:58.439Z,10.37
2017-11-18T18:45:27.210Z,10.17
2017-11-18T18:47:55.597Z,10.33
2017-11-18T18:50:23.133Z,10.03
2017-11-18T18:52:50.767Z,11.23
2017-11-18T18:55:18.313Z,11.87
2017-11-18T18:57:45.956Z,12.57
2017-11-18T19:00:14.217Z,12.30
2017-11-18T19:02:41.779Z,13.67
2017-11-18T19:05:09.320Z,11.80
2017-11-18T19:07:36.860Z,13.23
2017-11-18T19:10:04.381Z,11.40
2017-11-18T19:12:32.731Z,12.90
2017-11-18T19:15:00.247Z,14.80
2017-11-18T19:17:27.742Z,14.13
2017-11-18T19:19:55.217Z,14.37
2017-11-18T19:22:22.692Z,15.70
2017-11-18T19:24:51.026Z,14.00
2017-11-18T19:27:18.583Z,15.10
2017-11-18T19:29:46.121Z,16.10
2017-11-18T19:32:13.634Z,15.47
2017-11-18T19:34:41.901Z,17.27
2017-11-18T19:37:09.458Z,16.93
2017-11-18T19:39:37.011Z,16.50
2017-11-18T19:42:04.596Z,15.13
2017-11-18T19:44:32.865Z,18.60
2017-11-18T19:47:00.404Z,17.17
2017-11-18T19:49:27.973Z,14.90
2017-11-18T19:51:55.456Z,18.40
2017-11-18T19:54:23.747Z,16.77
2017-11-18T19:56:52.112Z,15.30
2017-11-18T19:59:20.394Z,15.63
2017-11-18T20:01:47.885Z,13.77
2017-11-18T20:04:15.451Z,13.70
2017-11-18T20:06:42.940Z,15.53
2017-11-18T20:09:10.490Z,15.13
2017-11-18T20:11:38.037Z,12.57
2017-11-18T20:14:05.516Z,13.40
2017-11-18T20:16:33.056Z,18.40
2017-11-18T20:19:00.533Z,12.97
2017-11-18T20:21:28.037Z,14.07
2017-11-18T20:23:55.581Z,12.43
2017-11-18T20:26:24.314Z,12.10
2017-11-18T20:28:52.646Z,12.93
2017-11-18T20:31:20.944Z,12.17
2017-11-18T20:33:48.641Z,13.87
2017-11-18T20:36:16.131Z,14.70
2017-11-18T20:38:43.650Z,13.73
2017-11-18T20:41:11.179Z,14.60
2017-11-18T20:43:39.441Z,14.47
2017-11-18T20:46:06.947Z,22.00
2017-11-18T20:48:34.446Z,18.47
2017-11-18T20:51:02.781Z,14.23
2017-11-18T20:53:30.397Z,15.53
2017-11-18T20:55:58.753Z,12.57
2017-11-18T20:58:26.364Z,15.10
2017-11-18T21:00:53.852Z,15.33
2017-11-18T21:03:21.411Z,22.20
2017-11-18T21:05:48.969Z,17.93
2017-11-18T21:08:16.453Z,13.30
2017-11-18T21:10:44.000Z,13.23
2017-11-18T21:13:11.482Z,14.73
2017-11-18T21:15:38.986Z,15.87
2017-11-18T21:18:06.469Z,17.47
2017-11-18T21:20:33.988Z,17.47
2017-11-18T21:23:02.225Z,15.90
2017-11-18T21:25:29.755Z,15.87
2017-11-18T21:27:57.247Z,15.77
2017-11-18T21:30:24.738Z,15.90
2017-11-18T21:32:53.070Z,16.37
2017-11-18T21:35:22.084Z,15.80
2017-11-18T21:37:50.363Z,17.37
2017-11-18T21:40:17.949Z,14.63
2017-11-18T21:42:46.289Z,18.63
2017-11-18T21:45:13.783Z,18.37
2017-11-18T21:47:42.037Z,19.73
2017-11-18T21:50:10.290Z,20.00
2017-11-18T21:52:37.833Z,19.43
2017-11-18T21:55:05.329Z,20.70
2017-11-18T21:57:32.841Z,20.17
2017-11-18T22:00:00.322Z,21.80
2017-11-18T22:02:27.881Z,21.43
2017-11-18T22:04:55.413Z,21.17
2017-11-18T22:07:22.878Z,20.67
2017-11-18T22:09:50.392Z,20.67
2017-11-18T22:12:18.691Z,21.63
2017-11-18T22:14:46.952Z,18.60
2017-11-18T22:17:15.217Z,18.90
2017-11-18T22:19:42.720Z,17.07
2017-11-18T22:22:11.603Z,14.07
2017-11-18T22:24:39.081Z,11.87
2017-11-18T22:27:08.692Z,10.90
2017-11-18T22:29:36.198Z,10.20
2017-11-18T22:32:03.740Z,10.33
2017-11-18T22:34:31.208Z,7.90
2017-11-18T22:36:59.502Z,8.57
2017-11-18T22:39:30.634Z,8.60
2017-11-18T22:42:00.412Z,9.33
2017-11-18T22:44:29.419Z,7.93
